Oyaad — LG9129 — position and weather

sailwx.info

Track history (hours):
 
Tides and Currents Weather Stations Pressure Air Temp Water Temp Dewpoint Dewpoint Depression Visibility Wind Speed Wind Dir Waves Ship Positions

Oyaad

Last reported at 2017-Oct-19 16:28 UTC. Time now 2017-Oct-19 16:54 UTC.
Position N 69°54' E 021°19'.

Length 11 m.

Type: Fishing. MMSI: 257921700.

Date/timePositionNaut miles runAvg speedWind from/ knotsBaromVisibWave heightAir tempDewpointWater temp
2017-Oct-19 16:28N 69°54' E 021°19'0 0.0
2017-Oct-19 15:58N 69°54' E 021°19'0 0.0
2017-Oct-19 15:28N 69°54' E 021°19'0 0.0
2017-Oct-19 14:58N 69°54' E 021°19'0 0.0
2017-Oct-19 14:28N 69°54' E 021°19'0 0.0
2017-Oct-19 13:58N 69°54' E 021°19'0 0.0
2017-Oct-19 13:28N 69°54' E 021°19'0 0.0
2017-Oct-19 12:57N 69°54' E 021°19'2 4.7
2017-Oct-19 12:30N 69°55' E 021°13'2 3.2
2017-Oct-19 12:00N 69°55' E 021°09'0 0.4
2017-Oct-19 11:30N 69°55' E 021°09'1 1.9
2017-Oct-19 11:00N 69°55' E 021°06'0 0.4
2017-Oct-19 10:30N 69°55' E 021°06'0 0.8
2017-Oct-19 10:00N 69°55' E 021°05'1 1.4
2017-Oct-19 09:27N 69°54' E 021°05'0 0.4
2017-Oct-19 09:00N 69°54' E 021°05'1 2.2
2017-Oct-19 08:31N 69°55' E 021°08'1 1.8
2017-Oct-19 07:58N 69°55' E 021°10'1 1.1
2017-Oct-19 07:29N 69°55' E 021°11'3 5.6
2017-Oct-19 07:00N 69°54' E 021°19'0 0.0
2017-Oct-19 06:30N 69°54' E 021°19'0 0.0
2017-Oct-19 06:00N 69°54' E 021°19'0 0.0
2017-Oct-19 05:30N 69°54' E 021°19'0 0.0
2017-Oct-19 04:54N 69°54' E 021°19'0 0.0
2017-Oct-19 04:30N 69°54' E 021°19'0 0.0
2017-Oct-19 04:00N 69°54' E 021°19'0 0.0
2017-Oct-19 03:30N 69°54' E 021°19'0 0.0
2017-Oct-19 03:00N 69°54' E 021°19'0 0.0
2017-Oct-19 02:30N 69°54' E 021°19'0 0.0
2017-Oct-19 02:00N 69°54' E 021°19'0 0.0
2017-Oct-19 01:30N 69°54' E 021°19'0 0.0
2017-Oct-19 01:00N 69°54' E 021°19'0 0.0
2017-Oct-19 00:30N 69°54' E 021°19'0 0.0
2017-Oct-19 00:00N 69°54' E 021°19'0 0.0
2017-Oct-18 23:30N 69°54' E 021°19'0 0.0
2017-Oct-18 23:00N 69°54' E 021°19'0 0.0
2017-Oct-18 22:30N 69°54' E 021°19'0 0.0
2017-Oct-18 22:00N 69°54' E 021°19'0 0.0
2017-Oct-18 21:30N 69°54' E 021°19'0 0.0
2017-Oct-18 21:00N 69°54' E 021°19'0 0.0
2017-Oct-18 20:30N 69°54' E 021°19'0 0.0
2017-Oct-18 20:00N 69°54' E 021°19'0 0.0
2017-Oct-18 19:30N 69°54' E 021°19'0 0.0
2017-Oct-18 19:00N 69°54' E 021°19'0 0.0
2017-Oct-18 18:27N 69°54' E 021°19'0 0.0
2017-Oct-18 18:00N 69°54' E 021°19'0 0.0
2017-Oct-18 17:30N 69°54' E 021°19'0 0.0
2017-Oct-18 17:00N 69°54' E 021°19'0 0.0
2017-Oct-18 16:30N 69°54' E 021°19'0 0.0
2017-Oct-18 16:00N 69°54' E 021°19'0 0.0
2017-Oct-18 15:30N 69°54' E 021°19'0 0.0
2017-Oct-18 15:00N 69°54' E 021°19'0 0.0
2017-Oct-18 14:00N 69°54' E 021°19'0 0.0
2017-Oct-18 13:30N 69°54' E 021°19'0 0.0
2017-Oct-18 13:00N 69°54' E 021°19'0 0.0
2017-Oct-18 12:30N 69°54' E 021°19'0 0.0
2017-Oct-18 12:00N 69°54' E 021°19'0 0.0
2017-Oct-18 11:27N 69°54' E 021°19'0 0.0
2017-Oct-18 11:00N 69°54' E 021°19'0 0.3
2017-Oct-18 10:30N 69°54' E 021°19'3 6.3
2017-Oct-18 09:59N 69°55' E 021°10'1 2.5
2017-Oct-18 09:30N 69°55' E 021°06'1 1.6
2017-Oct-18 09:00N 69°54' E 021°07'3 5.7
2017-Oct-18 08:29N 69°55' E 021°16'1 2.6
2017-Oct-18 08:00N 69°54' E 021°19'0 0.0
2017-Oct-18 07:30N 69°54' E 021°19'0 0.0
2017-Oct-18 07:00N 69°54' E 021°19'0 0.0
2017-Oct-18 06:30N 69°54' E 021°19'0 0.0
2017-Oct-18 06:00N 69°54' E 021°19'0 0.0
2017-Oct-18 05:30N 69°54' E 021°19'0 0.0
2017-Oct-18 05:00N 69°54' E 021°19'0 0.0
2017-Oct-18 04:30N 69°54' E 021°19'0 0.0
2017-Oct-18 04:00N 69°54' E 021°19'0 0.0
2017-Oct-18 03:30N 69°54' E 021°19'0 0.0
2017-Oct-18 03:00N 69°54' E 021°19'0 0.0
2017-Oct-18 02:30N 69°54' E 021°19'0 0.0
2017-Oct-18 02:00N 69°54' E 021°19'0 0.0
2017-Oct-18 01:30N 69°54' E 021°19'0 0.0
2017-Oct-18 01:00N 69°54' E 021°19'0 0.0
2017-Oct-18 00:30N 69°54' E 021°19'0 0.0
2017-Oct-18 00:00N 69°54' E 021°19'0 0.0
2017-Oct-17 23:30N 69°54' E 021°19'0 0.0
2017-Oct-17 23:00N 69°54' E 021°19'0 0.0
2017-Oct-17 22:30N 69°54' E 021°19'0 0.0
2017-Oct-17 22:00N 69°54' E 021°19'0 0.0
2017-Oct-17 21:30N 69°54' E 021°19'0 0.0
2017-Oct-17 21:00N 69°54' E 021°19'0 0.0
2017-Oct-17 20:30N 69°54' E 021°19'0 0.0
2017-Oct-17 20:00N 69°54' E 021°19'0 0.0
2017-Oct-17 19:30N 69°54' E 021°19'0 0.0
2017-Oct-17 19:00N 69°54' E 021°19'0 0.0
2017-Oct-17 18:30N 69°54' E 021°19'0 0.0
2017-Oct-17 18:00N 69°54' E 021°19'0 0.0
2017-Oct-17 17:30N 69°54' E 021°19'0 0.0
2017-Oct-17 17:00N 69°54' E 021°19'0 0.0
2017-Oct-17 16:30N 69°54' E 021°19'0 0.0
2017-Oct-17 16:00N 69°54' E 021°19'0 0.0
2017-Oct-17 15:30N 69°54' E 021°19'0 0.0
2017-Oct-17 15:00N 69°54' E 021°19'0 0.0
2017-Oct-17 14:30N 69°54' E 021°19'0 0.0
2017-Oct-17 14:00N 69°54' E 021°19'0 0.0
2017-Oct-17 13:30N 69°54' E 021°19'0 0.0
2017-Oct-17 13:00N 69°54' E 021°19'0 0.0
2017-Oct-17 12:30N 69°54' E 021°19'0 0.0
2017-Oct-17 12:00N 69°54' E 021°19'0 0.0
2017-Oct-17 11:30N 69°54' E 021°19'0 0.0
2017-Oct-17 11:00N 69°54' E 021°19'0 0.0
2017-Oct-17 10:30N 69°54' E 021°19'0 0.0
2017-Oct-17 10:00N 69°54' E 021°19'0 0.0
2017-Oct-17 09:30N 69°54' E 021°19'0 0.0
2017-Oct-17 08:57N 69°54' E 021°19'0 0.0
2017-Oct-17 08:30N 69°54' E 021°19'0 0.0
2017-Oct-17 08:00N 69°54' E 021°19'0 0.0
2017-Oct-17 07:30N 69°54' E 021°19'0 0.0
2017-Oct-17 07:00N 69°54' E 021°19'0 0.0
2017-Oct-17 06:30N 69°54' E 021°19'0 0.0
2017-Oct-17 06:00N 69°54' E 021°19'0 0.0
2017-Oct-17 05:30N 69°54' E 021°19'0 0.0
2017-Oct-17 05:00N 69°54' E 021°19'0 0.0
2017-Oct-17 04:30N 69°54' E 021°19'0 0.0
2017-Oct-17 04:00N 69°54' E 021°19'0 0.0
2017-Oct-17 03:30N 69°54' E 021°19'0 0.0
2017-Oct-17 03:00N 69°54' E 021°19'0 0.0
2017-Oct-17 02:30N 69°54' E 021°19'0 0.0
2017-Oct-17 02:00N 69°54' E 021°19'0 0.0
2017-Oct-17 01:30N 69°54' E 021°19'0 0.0
2017-Oct-17 01:00N 69°54' E 021°19'0 0.0
2017-Oct-17 00:30N 69°54' E 021°19'0 0.0
2017-Oct-17 00:00N 69°54' E 021°19'0 0.0
2017-Oct-16 23:30N 69°54' E 021°19'0 0.0
2017-Oct-16 23:00N 69°54' E 021°19'0 0.0
2017-Oct-16 22:30N 69°54' E 021°19'0 0.0
2017-Oct-16 22:00N 69°54' E 021°19'0 0.0
2017-Oct-16 21:30N 69°54' E 021°19'0 0.0
2017-Oct-16 21:00N 69°54' E 021°19'0 0.0
2017-Oct-16 20:30N 69°54' E 021°19'0 0.0
2017-Oct-16 20:00N 69°54' E 021°19'0 0.0
2017-Oct-16 19:30N 69°54' E 021°19'0 0.0
2017-Oct-16 19:00N 69°54' E 021°19'0 0.0
2017-Oct-16 18:30N 69°54' E 021°19'0 0.0
2017-Oct-16 18:00N 69°54' E 021°19'0 0.0
2017-Oct-16 17:27N 69°54' E 021°19'0 0.0
2017-Oct-16 17:00N 69°54' E 021°19'0 0.0
2017-Oct-16 16:30N 69°54' E 021°19'0 0.0
2017-Oct-16 16:00N 69°54' E 021°19'0 0.0
2017-Oct-16 15:30N 69°54' E 021°19'0 0.0
2017-Oct-16 15:00N 69°54' E 021°19'0 0.0
2017-Oct-16 14:00N 69°54' E 021°19'0 0.0
2017-Oct-16 13:30N 69°54' E 021°19'0 0.0
2017-Oct-16 13:00N 69°54' E 021°19'0 0.0
2017-Oct-16 12:30N 69°54' E 021°19'0 0.0
2017-Oct-16 12:00N 69°54' E 021°19'0 0.0
2017-Oct-16 11:30N 69°54' E 021°19'0 0.0
2017-Oct-16 11:00N 69°54' E 021°19'0 0.0
2017-Oct-16 10:30N 69°54' E 021°19'0 0.0
2017-Oct-16 10:00N 69°54' E 021°19'0 0.0
2017-Oct-16 09:30N 69°54' E 021°19'0 0.0
2017-Oct-16 09:00N 69°54' E 021°19'0 0.0
2017-Oct-16 08:30N 69°54' E 021°19'0 0.0
2017-Oct-16 08:00N 69°54' E 021°19'0 0.0
2017-Oct-16 07:30N 69°54' E 021°19'0 0.0
2017-Oct-16 06:57N 69°54' E 021°19'0 0.0
2017-Oct-16 06:30N 69°54' E 021°19'0 0.0
2017-Oct-16 06:00N 69°54' E 021°19'0 0.0
2017-Oct-16 05:30N 69°54' E 021°19'0 0.0
2017-Oct-16 05:00N 69°54' E 021°19'0 0.0
2017-Oct-16 04:30N 69°54' E 021°19'0 0.0
2017-Oct-16 04:00N 69°54' E 021°19'0 0.0
2017-Oct-16 03:30N 69°54' E 021°19'0 0.0
2017-Oct-16 03:00N 69°54' E 021°19'0 0.0
2017-Oct-16 02:30N 69°54' E 021°19'0 0.0
2017-Oct-16 02:00N 69°54' E 021°19'0 0.0
2017-Oct-16 01:30N 69°54' E 021°19'0 0.0
2017-Oct-16 01:00N 69°54' E 021°19'0 0.0
2017-Oct-16 00:30N 69°54' E 021°19'0 0.0
2017-Oct-16 00:00N 69°54' E 021°19'0 0.0
2017-Oct-15 23:30N 69°54' E 021°19'0 0.0
2017-Oct-15 23:00N 69°54' E 021°19'0 0.0
2017-Oct-15 22:30N 69°54' E 021°19'0 0.0
2017-Oct-15 22:00N 69°54' E 021°19'0 0.0
2017-Oct-15 21:30N 69°54' E 021°19'0 0.0
2017-Oct-15 21:00N 69°54' E 021°19'0 0.0
2017-Oct-15 20:30N 69°54' E 021°19'0 0.0
2017-Oct-15 20:00N 69°54' E 021°19'0 0.0
2017-Oct-15 19:30N 69°54' E 021°19'0 0.0
2017-Oct-15 19:00N 69°54' E 021°19'0 0.0
2017-Oct-15 18:30N 69°54' E 021°19'0 0.0
2017-Oct-15 18:00N 69°54' E 021°19'0 0.0
2017-Oct-15 17:30N 69°54' E 021°19'0 0.0
2017-Oct-15 17:00N 69°54' E 021°19'0 0.0
2017-Oct-15 16:30N 69°54' E 021°19'0 0.0
2017-Oct-15 16:00N 69°54' E 021°19'0 0.0
2017-Oct-15 15:30N 69°54' E 021°19'0 0.0
2017-Oct-15 14:57N 69°54' E 021°19'0 0.0
2017-Oct-15 14:00N 69°54' E 021°19'0 0.0
2017-Oct-15 13:30N 69°54' E 021°19'0 0.0
2017-Oct-15 13:00N 69°54' E 021°19'0 0.0
2017-Oct-15 12:30N 69°54' E 021°19'0 0.0
2017-Oct-15 12:00N 69°54' E 021°19'0 0.0
2017-Oct-15 11:30N 69°54' E 021°19'0 0.0
2017-Oct-15 11:00N 69°54' E 021°19'0 0.0
2017-Oct-15 10:30N 69°54' E 021°19'0 0.0
2017-Oct-15 10:00N 69°54' E 021°19'0 0.0
2017-Oct-15 09:30N 69°54' E 021°19'0 0.0
2017-Oct-15 09:00N 69°54' E 021°19'0 0.0
2017-Oct-15 08:30N 69°54' E 021°19'0 0.0
2017-Oct-15 08:00N 69°54' E 021°19'0 0.0
2017-Oct-15 07:30N 69°54' E 021°19'0 0.0
2017-Oct-15 07:00N 69°54' E 021°19'0 0.0
2017-Oct-15 06:30N 69°54' E 021°19'0 0.0
2017-Oct-15 06:00N 69°54' E 021°19'0 0.0
2017-Oct-15 05:27N 69°54' E 021°19'0 0.0
2017-Oct-15 05:00N 69°54' E 021°19'0 0.0
2017-Oct-15 04:30N 69°54' E 021°19'0 0.0
2017-Oct-15 04:00N 69°54' E 021°19'0 0.0
2017-Oct-15 03:30N 69°54' E 021°19'0 0.0
2017-Oct-15 03:00N 69°54' E 021°19'0 0.0
2017-Oct-15 02:30N 69°54' E 021°19'0 0.0
2017-Oct-15 02:00N 69°54' E 021°19'0 0.0
2017-Oct-15 01:30N 69°54' E 021°19'0 0.0
2017-Oct-15 01:00N 69°54' E 021°19'0 0.0
2017-Oct-15 00:30N 69°54' E 021°19'0 0.0
2017-Oct-14 23:57N 69°54' E 021°19'0 0.0
2017-Oct-14 23:27N 69°54' E 021°19'0 0.0
2017-Oct-14 23:00N 69°54' E 021°19'0 0.0
2017-Oct-14 22:30N 69°54' E 021°19'0 0.0
2017-Oct-14 22:00N 69°54' E 021°19'0 0.0
2017-Oct-14 21:30N 69°54' E 021°19'0 0.0
2017-Oct-14 21:00N 69°54' E 021°19'0 0.0
2017-Oct-14 20:30N 69°54' E 021°19'0 0.0
2017-Oct-14 20:00N 69°54' E 021°19'0 0.0
2017-Oct-14 19:30N 69°54' E 021°19'0 0.0
2017-Oct-14 19:00N 69°54' E 021°19'0 0.0
2017-Oct-14 18:30N 69°54' E 021°19'0 0.0
2017-Oct-14 18:00N 69°54' E 021°19'0 0.0
2017-Oct-14 17:30N 69°54' E 021°19'0 0.0
2017-Oct-14 17:00N 69°54' E 021°19'0 0.0
2017-Oct-14 16:30N 69°54' E 021°19'0 0.0
2017-Oct-14 16:00N 69°54' E 021°19'0 0.0
2017-Oct-14 15:30N 69°54' E 021°19'0 0.0
2017-Oct-14 15:00N 69°54' E 021°19'0 0.0
2017-Oct-14 14:30N 69°54' E 021°19'0 0.0
2017-Oct-14 14:00N 69°54' E 021°19'0 0.0
2017-Oct-14 13:30N 69°54' E 021°19'0 0.0
2017-Oct-14 13:00N 69°54' E 021°19'0 0.0
2017-Oct-14 12:30N 69°54' E 021°19'0 0.0
2017-Oct-14 12:00N 69°54' E 021°19'0 0.0
2017-Oct-14 11:30N 69°54' E 021°19'0 0.0
2017-Oct-14 11:00N 69°54' E 021°19'0 0.0
2017-Oct-14 10:30N 69°54' E 021°19'0 0.0
2017-Oct-14 10:00N 69°54' E 021°19'0 0.0
2017-Oct-14 09:30N 69°54' E 021°19'0 0.0
2017-Oct-14 09:00N 69°54' E 021°19'0 0.0
2017-Oct-14 08:30N 69°54' E 021°19'0 0.0
2017-Oct-14 08:00N 69°54' E 021°19'0 0.0
2017-Oct-14 07:27N 69°54' E 021°19'0 0.0
2017-Oct-14 07:00N 69°54' E 021°19'0 0.0
2017-Oct-14 06:30N 69°54' E 021°19'0 0.0
2017-Oct-14 06:00N 69°54' E 021°19'0 0.0
2017-Oct-14 05:27N 69°54' E 021°19'0 0.0
2017-Oct-14 05:00N 69°54' E 021°19'0 0.0
2017-Oct-14 04:30N 69°54' E 021°19'0 0.0
2017-Oct-14 04:00N 69°54' E 021°19'0 0.0
2017-Oct-14 03:30N 69°54' E 021°19'0 0.0
2017-Oct-14 03:00N 69°54' E 021°19'0 0.0
2017-Oct-14 02:30N 69°54' E 021°19'0 0.0
2017-Oct-14 02:00N 69°54' E 021°19'0 0.0
2017-Oct-14 01:30N 69°54' E 021°19'0 0.0
2017-Oct-14 01:00N 69°54' E 021°19'0 0.0
2017-Oct-14 00:27N 69°54' E 021°19'0 0.0
2017-Oct-14 00:00N 69°54' E 021°19'0 0.0
2017-Oct-13 23:30N 69°54' E 021°19'0 0.0
2017-Oct-13 23:00N 69°54' E 021°19'0 0.0
2017-Oct-13 22:30N 69°54' E 021°19'0 0.0
2017-Oct-13 22:00N 69°54' E 021°19'0 0.0
2017-Oct-13 21:30N 69°54' E 021°19'0 0.0
2017-Oct-13 21:00N 69°54' E 021°19'0 0.0
2017-Oct-13 20:30N 69°54' E 021°19'0 0.0
2017-Oct-13 20:00N 69°54' E 021°19'0 0.0
2017-Oct-13 19:30N 69°54' E 021°19'0 0.0
2017-Oct-13 19:00N 69°54' E 021°19'0 0.0
2017-Oct-13 18:30N 69°54' E 021°19'0 0.0
2017-Oct-13 18:00N 69°54' E 021°19'0 0.0
2017-Oct-13 17:30N 69°54' E 021°19'0 0.0
2017-Oct-13 17:00N 69°54' E 021°19'0 0.0
2017-Oct-13 16:30N 69°54' E 021°19'0 0.0
2017-Oct-13 16:00N 69°54' E 021°19'0 0.0
2017-Oct-13 15:30N 69°54' E 021°19'0 0.0
2017-Oct-13 15:00N 69°54' E 021°19'0 0.0
2017-Oct-13 14:30N 69°54' E 021°19'0 0.0
2017-Oct-13 14:00N 69°54' E 021°19'0 0.0
2017-Oct-13 13:30N 69°54' E 021°19'0 0.0
2017-Oct-13 13:00N 69°54' E 021°19'0 0.0
2017-Oct-13 12:30N 69°54' E 021°19'0 0.0
2017-Oct-13 12:00N 69°54' E 021°19'0 0.0
2017-Oct-13 11:30N 69°54' E 021°19'0 0.0
2017-Oct-13 11:00N 69°54' E 021°19'0 0.0
2017-Oct-13 10:30N 69°54' E 021°19'0 0.0
2017-Oct-13 10:00N 69°54' E 021°19'0 0.0
2017-Oct-13 09:30N 69°54' E 021°19'0 0.0
2017-Oct-13 09:00N 69°54' E 021°19'0 0.0
2017-Oct-13 08:30N 69°54' E 021°19'0 0.0
2017-Oct-13 08:00N 69°54' E 021°19'0 0.0
2017-Oct-12 16:26N 69°54' E 021°19'0 0.0
2017-Oct-12 16:00N 69°54' E 021°19'0 0.0
2017-Oct-12 15:30N 69°54' E 021°19'0 0.0
2017-Oct-12 15:00N 69°54' E 021°19'0 0.0
2017-Oct-12 14:30N 69°54' E 021°19'0 0.0
2017-Oct-12 14:00N 69°54' E 021°19'0 0.0
2017-Oct-12 13:30N 69°54' E 021°19'0 0.0
2017-Oct-12 13:00N 69°54' E 021°19'0 0.0
2017-Oct-12 12:30N 69°54' E 021°19'0 0.0
2017-Oct-12 12:00N 69°54' E 021°19'0 0.0
2017-Oct-12 11:30N 69°54' E 021°19'0 0.0
2017-Oct-12 11:00N 69°54' E 021°19'0 0.0
2017-Oct-12 10:30N 69°54' E 021°19'0 0.0
2017-Oct-12 10:00N 69°54' E 021°19'0 0.0
2017-Oct-12 09:30N 69°54' E 021°19'0 0.0
2017-Oct-12 09:00N 69°54' E 021°19'0 0.0
2017-Oct-12 08:27N 69°54' E 021°19'0 0.0
2017-Oct-12 08:00N 69°54' E 021°19'0 0.0
2017-Oct-12 07:30N 69°54' E 021°19'0 0.0
2017-Oct-12 07:00N 69°54' E 021°19'0 0.0
2017-Oct-12 06:30N 69°54' E 021°19'0 0.0
2017-Oct-12 06:00N 69°54' E 021°19'0 0.0
2017-Oct-12 05:30N 69°54' E 021°19'0 0.0
2017-Oct-12 05:00N 69°54' E 021°19'0 0.0
2017-Oct-12 04:30N 69°54' E 021°19'0 0.0
2017-Oct-12 04:00N 69°54' E 021°19'0 0.0
2017-Oct-12 03:30N 69°54' E 021°19'0 0.0
2017-Oct-12 03:00N 69°54' E 021°19'0 0.0
2017-Oct-12 02:30N 69°54' E 021°19'0 0.0
2017-Oct-12 02:00N 69°54' E 021°19'0 0.0
2017-Oct-12 01:30N 69°54' E 021°19'0 0.0
2017-Oct-12 01:00N 69°54' E 021°19'0 0.0
2017-Oct-12 00:30N 69°54' E 021°19'0 0.0
2017-Oct-12 00:00N 69°54' E 021°19'0 0.0
2017-Oct-11 23:30N 69°54' E 021°19'0 0.0
2017-Oct-11 23:00N 69°54' E 021°19'0 0.0
2017-Oct-11 22:30N 69°54' E 021°19'0 0.0
2017-Oct-11 22:00N 69°54' E 021°19'0 0.0
2017-Oct-11 21:30N 69°54' E 021°19'2 3.7
2017-Oct-11 21:00N 69°55' E 021°14'3 6.3
2017-Oct-11 20:28N 69°58' E 021°09'3 7.1
2017-Oct-11 20:00N 70°01' E 021°09'3 6.9
2017-Oct-11 19:30N 70°05' E 021°08'3 5.9
2017-Oct-11 18:57N 70°08' E 021°08'3 5.4
2017-Oct-11 18:29N 70°10' E 021°08'8 5.5
2017-Oct-11 17:03N 70°17' E 021°21'0 7.4
2017-Oct-11 17:00N 70°17' E 021°22'37 1.2
2017-Oct-10 10:02N 70°43' E 022°42'0 6.6
2017-Oct-10 09:58N 70°43' E 022°41'1 1.0
2017-Oct-10 09:28N 70°43' E 022°39'0 0.6
2017-Oct-10 09:00N 70°43' E 022°38'1 1.4
2017-Oct-10 08:28N 70°43' E 022°38'0 0.7
2017-Oct-10 07:54N 70°43' E 022°37'1 1.3
2017-Oct-10 07:28N 70°43' E 022°38'0 0.5
2017-Oct-10 07:00N 70°43' E 022°38'1 0.9
2017-Oct-10 06:10N 70°43' E 022°38'1 5.9
2017-Oct-10 05:57N 70°43' E 022°40'  
Track history (hours):
 
Tides and Currents Weather Stations Pressure Air Temp Water Temp Dewpoint Dewpoint Depression Visibility Wind Speed Wind Dir Waves Ship Positions

Oyaad

Last reported at 2017-Oct-19 16:28 UTC. Time now 2017-Oct-19 16:54 UTC.
Position N 69°54' E 021°19'.

Length 11 m.

Type: Fishing. MMSI: 257921700.

Date/timePositionNaut miles runAvg speedWind from/ knotsBaromVisibWave heightAir tempDewpointWater temp
2017-Oct-19 16:28N 69°54' E 021°19'0 0.0
2017-Oct-19 15:58N 69°54' E 021°19'0 0.0
2017-Oct-19 15:28N 69°54' E 021°19'0 0.0
2017-Oct-19 14:58N 69°54' E 021°19'0 0.0
2017-Oct-19 14:28N 69°54' E 021°19'0 0.0
2017-Oct-19 13:58N 69°54' E 021°19'0 0.0
2017-Oct-19 13:28N 69°54' E 021°19'0 0.0
2017-Oct-19 12:57N 69°54' E 021°19'2 4.7
2017-Oct-19 12:30N 69°55' E 021°13'2 3.2
2017-Oct-19 12:00N 69°55' E 021°09'0 0.4
2017-Oct-19 11:30N 69°55' E 021°09'1 1.9
2017-Oct-19 11:00N 69°55' E 021°06'0 0.4
2017-Oct-19 10:30N 69°55' E 021°06'0 0.8
2017-Oct-19 10:00N 69°55' E 021°05'1 1.4
2017-Oct-19 09:27N 69°54' E 021°05'0 0.4
2017-Oct-19 09:00N 69°54' E 021°05'1 2.2
2017-Oct-19 08:31N 69°55' E 021°08'1 1.8
2017-Oct-19 07:58N 69°55' E 021°10'1 1.1
2017-Oct-19 07:29N 69°55' E 021°11'3 5.6
2017-Oct-19 07:00N 69°54' E 021°19'0 0.0
2017-Oct-19 06:30N 69°54' E 021°19'0 0.0
2017-Oct-19 06:00N 69°54' E 021°19'0 0.0
2017-Oct-19 05:30N 69°54' E 021°19'0 0.0
2017-Oct-19 04:54N 69°54' E 021°19'0 0.0
2017-Oct-19 04:30N 69°54' E 021°19'0 0.0
2017-Oct-19 04:00N 69°54' E 021°19'0 0.0
2017-Oct-19 03:30N 69°54' E 021°19'0 0.0
2017-Oct-19 03:00N 69°54' E 021°19'0 0.0
2017-Oct-19 02:30N 69°54' E 021°19'0 0.0
2017-Oct-19 02:00N 69°54' E 021°19'0 0.0
2017-Oct-19 01:30N 69°54' E 021°19'0 0.0
2017-Oct-19 01:00N 69°54' E 021°19'0 0.0
2017-Oct-19 00:30N 69°54' E 021°19'0 0.0
2017-Oct-19 00:00N 69°54' E 021°19'0 0.0
2017-Oct-18 23:30N 69°54' E 021°19'0 0.0
2017-Oct-18 23:00N 69°54' E 021°19'0 0.0
2017-Oct-18 22:30N 69°54' E 021°19'0 0.0
2017-Oct-18 22:00N 69°54' E 021°19'0 0.0
2017-Oct-18 21:30N 69°54' E 021°19'0 0.0
2017-Oct-18 21:00N 69°54' E 021°19'0 0.0
2017-Oct-18 20:30N 69°54' E 021°19'0 0.0
2017-Oct-18 20:00N 69°54' E 021°19'0 0.0
2017-Oct-18 19:30N 69°54' E 021°19'0 0.0
2017-Oct-18 19:00N 69°54' E 021°19'0 0.0
2017-Oct-18 18:27N 69°54' E 021°19'0 0.0
2017-Oct-18 18:00N 69°54' E 021°19'0 0.0
2017-Oct-18 17:30N 69°54' E 021°19'0 0.0
2017-Oct-18 17:00N 69°54' E 021°19'0 0.0
2017-Oct-18 16:30N 69°54' E 021°19'0 0.0
2017-Oct-18 16:00N 69°54' E 021°19'0 0.0
2017-Oct-18 15:30N 69°54' E 021°19'0 0.0
2017-Oct-18 15:00N 69°54' E 021°19'0 0.0
2017-Oct-18 14:00N 69°54' E 021°19'0 0.0
2017-Oct-18 13:30N 69°54' E 021°19'0 0.0
2017-Oct-18 13:00N 69°54' E 021°19'0 0.0
2017-Oct-18 12:30N 69°54' E 021°19'0 0.0
2017-Oct-18 12:00N 69°54' E 021°19'0 0.0
2017-Oct-18 11:27N 69°54' E 021°19'0 0.0
2017-Oct-18 11:00N 69°54' E 021°19'0 0.3
2017-Oct-18 10:30N 69°54' E 021°19'3 6.3
2017-Oct-18 09:59N 69°55' E 021°10'1 2.5
2017-Oct-18 09:30N 69°55' E 021°06'1 1.6
2017-Oct-18 09:00N 69°54' E 021°07'3 5.7
2017-Oct-18 08:29N 69°55' E 021°16'1 2.6
2017-Oct-18 08:00N 69°54' E 021°19'0 0.0
2017-Oct-18 07:30N 69°54' E 021°19'0 0.0
2017-Oct-18 07:00N 69°54' E 021°19'0 0.0
2017-Oct-18 06:30N 69°54' E 021°19'0 0.0
2017-Oct-18 06:00N 69°54' E 021°19'0 0.0
2017-Oct-18 05:30N 69°54' E 021°19'0 0.0
2017-Oct-18 05:00N 69°54' E 021°19'0 0.0
2017-Oct-18 04:30N 69°54' E 021°19'0 0.0
2017-Oct-18 04:00N 69°54' E 021°19'0 0.0
2017-Oct-18 03:30N 69°54' E 021°19'0 0.0
2017-Oct-18 03:00N 69°54' E 021°19'0 0.0
2017-Oct-18 02:30N 69°54' E 021°19'0 0.0
2017-Oct-18 02:00N 69°54' E 021°19'0 0.0
2017-Oct-18 01:30N 69°54' E 021°19'0 0.0
2017-Oct-18 01:00N 69°54' E 021°19'0 0.0
2017-Oct-18 00:30N 69°54' E 021°19'0 0.0
2017-Oct-18 00:00N 69°54' E 021°19'0 0.0
2017-Oct-17 23:30N 69°54' E 021°19'0 0.0
2017-Oct-17 23:00N 69°54' E 021°19'0 0.0
2017-Oct-17 22:30N 69°54' E 021°19'0 0.0
2017-Oct-17 22:00N 69°54' E 021°19'0 0.0
2017-Oct-17 21:30N 69°54' E 021°19'0 0.0
2017-Oct-17 21:00N 69°54' E 021°19'0 0.0
2017-Oct-17 20:30N 69°54' E 021°19'0 0.0
2017-Oct-17 20:00N 69°54' E 021°19'0 0.0
2017-Oct-17 19:30N 69°54' E 021°19'0 0.0
2017-Oct-17 19:00N 69°54' E 021°19'0 0.0
2017-Oct-17 18:30N 69°54' E 021°19'0 0.0
2017-Oct-17 18:00N 69°54' E 021°19'0 0.0
2017-Oct-17 17:30N 69°54' E 021°19'0 0.0
2017-Oct-17 17:00N 69°54' E 021°19'0 0.0
2017-Oct-17 16:30N 69°54' E 021°19'0 0.0
2017-Oct-17 16:00N 69°54' E 021°19'0 0.0
2017-Oct-17 15:30N 69°54' E 021°19'0 0.0
2017-Oct-17 15:00N 69°54' E 021°19'0 0.0
2017-Oct-17 14:30N 69°54' E 021°19'0 0.0
2017-Oct-17 14:00N 69°54' E 021°19'0 0.0
2017-Oct-17 13:30N 69°54' E 021°19'0 0.0
2017-Oct-17 13:00N 69°54' E 021°19'0 0.0
2017-Oct-17 12:30N 69°54' E 021°19'0 0.0
2017-Oct-17 12:00N 69°54' E 021°19'0 0.0
2017-Oct-17 11:30N 69°54' E 021°19'0 0.0
2017-Oct-17 11:00N 69°54' E 021°19'0 0.0
2017-Oct-17 10:30N 69°54' E 021°19'0 0.0
2017-Oct-17 10:00N 69°54' E 021°19'0 0.0
2017-Oct-17 09:30N 69°54' E 021°19'0 0.0
2017-Oct-17 08:57N 69°54' E 021°19'0 0.0
2017-Oct-17 08:30N 69°54' E 021°19'0 0.0
2017-Oct-17 08:00N 69°54' E 021°19'0 0.0
2017-Oct-17 07:30N 69°54' E 021°19'0 0.0
2017-Oct-17 07:00N 69°54' E 021°19'0 0.0
2017-Oct-17 06:30N 69°54' E 021°19'0 0.0
2017-Oct-17 06:00N 69°54' E 021°19'0 0.0
2017-Oct-17 05:30N 69°54' E 021°19'0 0.0
2017-Oct-17 05:00N 69°54' E 021°19'0 0.0
2017-Oct-17 04:30N 69°54' E 021°19'0 0.0
2017-Oct-17 04:00N 69°54' E 021°19'0 0.0
2017-Oct-17 03:30N 69°54' E 021°19'0 0.0
2017-Oct-17 03:00N 69°54' E 021°19'0 0.0
2017-Oct-17 02:30N 69°54' E 021°19'0 0.0
2017-Oct-17 02:00N 69°54' E 021°19'0 0.0
2017-Oct-17 01:30N 69°54' E 021°19'0 0.0
2017-Oct-17 01:00N 69°54' E 021°19'0 0.0
2017-Oct-17 00:30N 69°54' E 021°19'0 0.0
2017-Oct-17 00:00N 69°54' E 021°19'0 0.0
2017-Oct-16 23:30N 69°54' E 021°19'0 0.0
2017-Oct-16 23:00N 69°54' E 021°19'0 0.0
2017-Oct-16 22:30N 69°54' E 021°19'0 0.0
2017-Oct-16 22:00N 69°54' E 021°19'0 0.0
2017-Oct-16 21:30N 69°54' E 021°19'0 0.0
2017-Oct-16 21:00N 69°54' E 021°19'0 0.0
2017-Oct-16 20:30N 69°54' E 021°19'0 0.0
2017-Oct-16 20:00N 69°54' E 021°19'0 0.0
2017-Oct-16 19:30N 69°54' E 021°19'0 0.0
2017-Oct-16 19:00N 69°54' E 021°19'0 0.0
2017-Oct-16 18:30N 69°54' E 021°19'0 0.0
2017-Oct-16 18:00N 69°54' E 021°19'0 0.0
2017-Oct-16 17:27N 69°54' E 021°19'0 0.0
2017-Oct-16 17:00N 69°54' E 021°19'0 0.0
2017-Oct-16 16:30N 69°54' E 021°19'0 0.0
2017-Oct-16 16:00N 69°54' E 021°19'0 0.0
2017-Oct-16 15:30N 69°54' E 021°19'0 0.0
2017-Oct-16 15:00N 69°54' E 021°19'0 0.0
2017-Oct-16 14:00N 69°54' E 021°19'0 0.0
2017-Oct-16 13:30N 69°54' E 021°19'0 0.0
2017-Oct-16 13:00N 69°54' E 021°19'0 0.0
2017-Oct-16 12:30N 69°54' E 021°19'0 0.0
2017-Oct-16 12:00N 69°54' E 021°19'0 0.0
2017-Oct-16 11:30N 69°54' E 021°19'0 0.0
2017-Oct-16 11:00N 69°54' E 021°19'0 0.0
2017-Oct-16 10:30N 69°54' E 021°19'0 0.0
2017-Oct-16 10:00N 69°54' E 021°19'0 0.0
2017-Oct-16 09:30N 69°54' E 021°19'0 0.0
2017-Oct-16 09:00N 69°54' E 021°19'0 0.0
2017-Oct-16 08:30N 69°54' E 021°19'0 0.0
2017-Oct-16 08:00N 69°54' E 021°19'0 0.0
2017-Oct-16 07:30N 69°54' E 021°19'0 0.0
2017-Oct-16 06:57N 69°54' E 021°19'0 0.0
2017-Oct-16 06:30N 69°54' E 021°19'0 0.0
2017-Oct-16 06:00N 69°54' E 021°19'0 0.0
2017-Oct-16 05:30N 69°54' E 021°19'0 0.0
2017-Oct-16 05:00N 69°54' E 021°19'0 0.0
2017-Oct-16 04:30N 69°54' E 021°19'0 0.0
2017-Oct-16 04:00N 69°54' E 021°19'0 0.0
2017-Oct-16 03:30N 69°54' E 021°19'0 0.0
2017-Oct-16 03:00N 69°54' E 021°19'0 0.0
2017-Oct-16 02:30N 69°54' E 021°19'0 0.0
2017-Oct-16 02:00N 69°54' E 021°19'0 0.0
2017-Oct-16 01:30N 69°54' E 021°19'0 0.0
2017-Oct-16 01:00N 69°54' E 021°19'0 0.0
2017-Oct-16 00:30N 69°54' E 021°19'0 0.0
2017-Oct-16 00:00N 69°54' E 021°19'0 0.0
2017-Oct-15 23:30N 69°54' E 021°19'0 0.0
2017-Oct-15 23:00N 69°54' E 021°19'0 0.0
2017-Oct-15 22:30N 69°54' E 021°19'0 0.0
2017-Oct-15 22:00N 69°54' E 021°19'0 0.0
2017-Oct-15 21:30N 69°54' E 021°19'0 0.0
2017-Oct-15 21:00N 69°54' E 021°19'0 0.0
2017-Oct-15 20:30N 69°54' E 021°19'0 0.0
2017-Oct-15 20:00N 69°54' E 021°19'0 0.0
2017-Oct-15 19:30N 69°54' E 021°19'0 0.0
2017-Oct-15 19:00N 69°54' E 021°19'0 0.0
2017-Oct-15 18:30N 69°54' E 021°19'0 0.0
2017-Oct-15 18:00N 69°54' E 021°19'0 0.0
2017-Oct-15 17:30N 69°54' E 021°19'0 0.0
2017-Oct-15 17:00N 69°54' E 021°19'0 0.0
2017-Oct-15 16:30N 69°54' E 021°19'0 0.0
2017-Oct-15 16:00N 69°54' E 021°19'0 0.0
2017-Oct-15 15:30N 69°54' E 021°19'0 0.0
2017-Oct-15 14:57N 69°54' E 021°19'0 0.0
2017-Oct-15 14:00N 69°54' E 021°19'0 0.0
2017-Oct-15 13:30N 69°54' E 021°19'0 0.0
2017-Oct-15 13:00N 69°54' E 021°19'0 0.0
2017-Oct-15 12:30N 69°54' E 021°19'0 0.0
2017-Oct-15 12:00N 69°54' E 021°19'0 0.0
2017-Oct-15 11:30N 69°54' E 021°19'0 0.0
2017-Oct-15 11:00N 69°54' E 021°19'0 0.0
2017-Oct-15 10:30N 69°54' E 021°19'0 0.0
2017-Oct-15 10:00N 69°54' E 021°19'0 0.0
2017-Oct-15 09:30N 69°54' E 021°19'0 0.0
2017-Oct-15 09:00N 69°54' E 021°19'0 0.0
2017-Oct-15 08:30N 69°54' E 021°19'0 0.0
2017-Oct-15 08:00N 69°54' E 021°19'0 0.0
2017-Oct-15 07:30N 69°54' E 021°19'0 0.0
2017-Oct-15 07:00N 69°54' E 021°19'0 0.0
2017-Oct-15 06:30N 69°54' E 021°19'0 0.0
2017-Oct-15 06:00N 69°54' E 021°19'0 0.0
2017-Oct-15 05:27N 69°54' E 021°19'0 0.0
2017-Oct-15 05:00N 69°54' E 021°19'0 0.0
2017-Oct-15 04:30N 69°54' E 021°19'0 0.0
2017-Oct-15 04:00N 69°54' E 021°19'0 0.0
2017-Oct-15 03:30N 69°54' E 021°19'0 0.0
2017-Oct-15 03:00N 69°54' E 021°19'0 0.0
2017-Oct-15 02:30N 69°54' E 021°19'0 0.0
2017-Oct-15 02:00N 69°54' E 021°19'0 0.0
2017-Oct-15 01:30N 69°54' E 021°19'0 0.0
2017-Oct-15 01:00N 69°54' E 021°19'0 0.0
2017-Oct-15 00:30N 69°54' E 021°19'0 0.0
2017-Oct-14 23:57N 69°54' E 021°19'0 0.0
2017-Oct-14 23:27N 69°54' E 021°19'0 0.0
2017-Oct-14 23:00N 69°54' E 021°19'0 0.0
2017-Oct-14 22:30N 69°54' E 021°19'0 0.0
2017-Oct-14 22:00N 69°54' E 021°19'0 0.0
2017-Oct-14 21:30N 69°54' E 021°19'0 0.0
2017-Oct-14 21:00N 69°54' E 021°19'0 0.0
2017-Oct-14 20:30N 69°54' E 021°19'0 0.0
2017-Oct-14 20:00N 69°54' E 021°19'0 0.0
2017-Oct-14 19:30N 69°54' E 021°19'0 0.0
2017-Oct-14 19:00N 69°54' E 021°19'0 0.0
2017-Oct-14 18:30N 69°54' E 021°19'0 0.0
2017-Oct-14 18:00N 69°54' E 021°19'0 0.0
2017-Oct-14 17:30N 69°54' E 021°19'0 0.0
2017-Oct-14 17:00N 69°54' E 021°19'0 0.0
2017-Oct-14 16:30N 69°54' E 021°19'0 0.0
2017-Oct-14 16:00N 69°54' E 021°19'0 0.0
2017-Oct-14 15:30N 69°54' E 021°19'0 0.0
2017-Oct-14 15:00N 69°54' E 021°19'0 0.0
2017-Oct-14 14:30N 69°54' E 021°19'0 0.0
2017-Oct-14 14:00N 69°54' E 021°19'0 0.0
2017-Oct-14 13:30N 69°54' E 021°19'0 0.0
2017-Oct-14 13:00N 69°54' E 021°19'0 0.0
2017-Oct-14 12:30N 69°54' E 021°19'0 0.0
2017-Oct-14 12:00N 69°54' E 021°19'0 0.0
2017-Oct-14 11:30N 69°54' E 021°19'0 0.0
2017-Oct-14 11:00N 69°54' E 021°19'0 0.0
2017-Oct-14 10:30N 69°54' E 021°19'0 0.0
2017-Oct-14 10:00N 69°54' E 021°19'0 0.0
2017-Oct-14 09:30N 69°54' E 021°19'0 0.0
2017-Oct-14 09:00N 69°54' E 021°19'0 0.0
2017-Oct-14 08:30N 69°54' E 021°19'0 0.0
2017-Oct-14 08:00N 69°54' E 021°19'0 0.0
2017-Oct-14 07:27N 69°54' E 021°19'0 0.0
2017-Oct-14 07:00N 69°54' E 021°19'0 0.0
2017-Oct-14 06:30N 69°54' E 021°19'0 0.0
2017-Oct-14 06:00N 69°54' E 021°19'0 0.0
2017-Oct-14 05:27N 69°54' E 021°19'0 0.0
2017-Oct-14 05:00N 69°54' E 021°19'0 0.0
2017-Oct-14 04:30N 69°54' E 021°19'0 0.0
2017-Oct-14 04:00N 69°54' E 021°19'0 0.0
2017-Oct-14 03:30N 69°54' E 021°19'0 0.0
2017-Oct-14 03:00N 69°54' E 021°19'0 0.0
2017-Oct-14 02:30N 69°54' E 021°19'0 0.0
2017-Oct-14 02:00N 69°54' E 021°19'0 0.0
2017-Oct-14 01:30N 69°54' E 021°19'0 0.0
2017-Oct-14 01:00N 69°54' E 021°19'0 0.0
2017-Oct-14 00:27N 69°54' E 021°19'0 0.0
2017-Oct-14 00:00N 69°54' E 021°19'0 0.0
2017-Oct-13 23:30N 69°54' E 021°19'0 0.0
2017-Oct-13 23:00N 69°54' E 021°19'0 0.0
2017-Oct-13 22:30N 69°54' E 021°19'0 0.0
2017-Oct-13 22:00N 69°54' E 021°19'0 0.0
2017-Oct-13 21:30N 69°54' E 021°19'0 0.0
2017-Oct-13 21:00N 69°54' E 021°19'0 0.0
2017-Oct-13 20:30N 69°54' E 021°19'0 0.0
2017-Oct-13 20:00N 69°54' E 021°19'0 0.0
2017-Oct-13 19:30N 69°54' E 021°19'0 0.0
2017-Oct-13 19:00N 69°54' E 021°19'0 0.0
2017-Oct-13 18:30N 69°54' E 021°19'0 0.0
2017-Oct-13 18:00N 69°54' E 021°19'0 0.0
2017-Oct-13 17:30N 69°54' E 021°19'0 0.0
2017-Oct-13 17:00N 69°54' E 021°19'0 0.0
2017-Oct-13 16:30N 69°54' E 021°19'0 0.0
2017-Oct-13 16:00N 69°54' E 021°19'0 0.0
2017-Oct-13 15:30N 69°54' E 021°19'0 0.0
2017-Oct-13 15:00N 69°54' E 021°19'0 0.0
2017-Oct-13 14:30N 69°54' E 021°19'0 0.0
2017-Oct-13 14:00N 69°54' E 021°19'0 0.0
2017-Oct-13 13:30N 69°54' E 021°19'0 0.0
2017-Oct-13 13:00N 69°54' E 021°19'0 0.0
2017-Oct-13 12:30N 69°54' E 021°19'0 0.0
2017-Oct-13 12:00N 69°54' E 021°19'0 0.0
2017-Oct-13 11:30N 69°54' E 021°19'0 0.0
2017-Oct-13 11:00N 69°54' E 021°19'0 0.0
2017-Oct-13 10:30N 69°54' E 021°19'0 0.0
2017-Oct-13 10:00N 69°54' E 021°19'0 0.0
2017-Oct-13 09:30N 69°54' E 021°19'0 0.0
2017-Oct-13 09:00N 69°54' E 021°19'0 0.0
2017-Oct-13 08:30N 69°54' E 021°19'0 0.0
2017-Oct-13 08:00N 69°54' E 021°19'0 0.0
2017-Oct-12 16:26N 69°54' E 021°19'0 0.0
2017-Oct-12 16:00N 69°54' E 021°19'0 0.0
2017-Oct-12 15:30N 69°54' E 021°19'0 0.0
2017-Oct-12 15:00N 69°54' E 021°19'0 0.0
2017-Oct-12 14:30N 69°54' E 021°19'0 0.0
2017-Oct-12 14:00N 69°54' E 021°19'0 0.0
2017-Oct-12 13:30N 69°54' E 021°19'0 0.0
2017-Oct-12 13:00N 69°54' E 021°19'0 0.0
2017-Oct-12 12:30N 69°54' E 021°19'0 0.0
2017-Oct-12 12:00N 69°54' E 021°19'0 0.0
2017-Oct-12 11:30N 69°54' E 021°19'0 0.0
2017-Oct-12 11:00N 69°54' E 021°19'0 0.0
2017-Oct-12 10:30N 69°54' E 021°19'0 0.0
2017-Oct-12 10:00N 69°54' E 021°19'0 0.0
2017-Oct-12 09:30N 69°54' E 021°19'0 0.0
2017-Oct-12 09:00N 69°54' E 021°19'0 0.0
2017-Oct-12 08:27N 69°54' E 021°19'0 0.0
2017-Oct-12 08:00N 69°54' E 021°19'0 0.0
2017-Oct-12 07:30N 69°54' E 021°19'0 0.0
2017-Oct-12 07:00N 69°54' E 021°19'0 0.0
2017-Oct-12 06:30N 69°54' E 021°19'0 0.0
2017-Oct-12 06:00N 69°54' E 021°19'0 0.0
2017-Oct-12 05:30N 69°54' E 021°19'0 0.0
2017-Oct-12 05:00N 69°54' E 021°19'0 0.0
2017-Oct-12 04:30N 69°54' E 021°19'0 0.0
2017-Oct-12 04:00N 69°54' E 021°19'0 0.0
2017-Oct-12 03:30N 69°54' E 021°19'0 0.0
2017-Oct-12 03:00N 69°54' E 021°19'0 0.0
2017-Oct-12 02:30N 69°54' E 021°19'0 0.0
2017-Oct-12 02:00N 69°54' E 021°19'0 0.0
2017-Oct-12 01:30N 69°54' E 021°19'0 0.0
2017-Oct-12 01:00N 69°54' E 021°19'0 0.0
2017-Oct-12 00:30N 69°54' E 021°19'0 0.0
2017-Oct-12 00:00N 69°54' E 021°19'0 0.0
2017-Oct-11 23:30N 69°54' E 021°19'0 0.0
2017-Oct-11 23:00N 69°54' E 021°19'0 0.0
2017-Oct-11 22:30N 69°54' E 021°19'0 0.0
2017-Oct-11 22:00N 69°54' E 021°19'0 0.0
2017-Oct-11 21:30N 69°54' E 021°19'2 3.7
2017-Oct-11 21:00N 69°55' E 021°14'3 6.3
2017-Oct-11 20:28N 69°58' E 021°09'3 7.1
2017-Oct-11 20:00N 70°01' E 021°09'3 6.9
2017-Oct-11 19:30N 70°05' E 021°08'3 5.9
2017-Oct-11 18:57N 70°08' E 021°08'3 5.4
2017-Oct-11 18:29N 70°10' E 021°08'8 5.5
2017-Oct-11 17:03N 70°17' E 021°21'0 7.4
2017-Oct-11 17:00N 70°17' E 021°22'37 1.2
2017-Oct-10 10:02N 70°43' E 022°42'0 6.6
2017-Oct-10 09:58N 70°43' E 022°41'1 1.0
2017-Oct-10 09:28N 70°43' E 022°39'0 0.6
2017-Oct-10 09:00N 70°43' E 022°38'1 1.4
2017-Oct-10 08:28N 70°43' E 022°38'0 0.7
2017-Oct-10 07:54N 70°43' E 022°37'1 1.3
2017-Oct-10 07:28N 70°43' E 022°38'0 0.5
2017-Oct-10 07:00N 70°43' E 022°38'1 0.9
2017-Oct-10 06:10N 70°43' E 022°38'1 5.9
2017-Oct-10 05:57N 70°43' E 022°40'  

Dump ship's entire track history